sensor_id;sensor_type;location;lat;lon;timestamp;pressure;altitude;pressure_sealevel;temperature;humidity
68871;BME280;55906;52.278;6.808;2024-02-21T00:01:15;102028.09;;;10.16;93.38
68871;BME280;55906;52.278;6.808;2024-02-21T00:03:41;102029.81;;;10.15;93.49
68871;BME280;55906;52.278;6.808;2024-02-21T00:06:08;102023.88;;;10.19;93.07
68871;BME280;55906;52.278;6.808;2024-02-21T00:08:35;102008.25;;;10.22;93.42
68871;BME280;55906;52.278;6.808;2024-02-21T00:11:03;102015.00;;;10.17;93.56
68871;BME280;55906;52.278;6.808;2024-02-21T00:13:30;102018.91;;;10.25;93.28
68871;BME280;55906;52.278;6.808;2024-02-21T00:15:56;102005.47;;;10.19;93.53
68871;BME280;55906;52.278;6.808;2024-02-21T00:18:23;101994.16;;;10.20;93.60
68871;BME280;55906;52.278;6.808;2024-02-21T00:20:50;101987.06;;;10.19;93.32
68871;BME280;55906;52.278;6.808;2024-02-21T00:23:16;101999.53;;;10.23;93.22
68871;BME280;55906;52.278;6.808;2024-02-21T00:25:43;102007.56;;;10.26;93.51
68871;BME280;55906;52.278;6.808;2024-02-21T00:28:11;101996.28;;;10.29;93.21
68871;BME280;55906;52.278;6.808;2024-02-21T00:30:38;101999.63;;;10.25;93.69
68871;BME280;55906;52.278;6.808;2024-02-21T00:33:04;101988.41;;;10.29;93.01
68871;BME280;55906;52.278;6.808;2024-02-21T00:35:31;101977.75;;;10.26;92.82
68871;BME280;55906;52.278;6.808;2024-02-21T00:37:58;101986.66;;;10.30;92.86
68871;BME280;55906;52.278;6.808;2024-02-21T00:40:27;101981.41;;;10.30;93.23
68871;BME280;55906;52.278;6.808;2024-02-21T00:42:55;101991.38;;;10.37;92.67
68871;BME280;55906;52.278;6.808;2024-02-21T00:45:23;101983.28;;;10.32;92.66
68871;BME280;55906;52.278;6.808;2024-02-21T00:47:50;101984.94;;;10.30;92.81
68871;BME280;55906;52.278;6.808;2024-02-21T00:50:16;101983.91;;;10.26;93.60
68871;BME280;55906;52.278;6.808;2024-02-21T00:52:43;101988.75;;;10.37;92.90
68871;BME280;55906;52.278;6.808;2024-02-21T00:55:10;101981.41;;;10.30;93.18
68871;BME280;55906;52.278;6.808;2024-02-21T00:57:36;101977.94;;;10.31;93.12
68871;BME280;55906;52.278;6.808;2024-02-21T01:00:04;101983.53;;;10.38;92.66
68871;BME280;55906;52.278;6.808;2024-02-21T01:02:32;101965.06;;;10.37;92.61
68871;BME280;55906;52.278;6.808;2024-02-21T01:05:00;101968.59;;;10.37;92.74
68871;BME280;55906;52.278;6.808;2024-02-21T01:07:26;101945.00;;;10.39;92.63
68871;BME280;55906;52.278;6.808;2024-02-21T01:09:53;101954.84;;;10.43;92.78
68871;BME280;55906;52.278;6.808;2024-02-21T01:12:20;101946.53;;;10.34;93.15
68871;BME280;55906;52.278;6.808;2024-02-21T01:14:47;101961.47;;;10.35;93.08
68871;BME280;55906;52.278;6.808;2024-02-21T01:17:15;101957.59;;;10.26;93.20
68871;BME280;55906;52.278;6.808;2024-02-21T01:19:43;101940.28;;;10.32;93.40
68871;BME280;55906;52.278;6.808;2024-02-21T01:22:09;101934.00;;;10.28;93.26
68871;BME280;55906;52.278;6.808;2024-02-21T01:24:36;101934.19;;;10.33;93.31
68871;BME280;55906;52.278;6.808;2024-02-21T01:27:03;101939.19;;;10.26;93.73
68871;BME280;55906;52.278;6.808;2024-02-21T01:29:29;101944.44;;;10.26;93.11
68871;BME280;55906;52.278;6.808;2024-02-21T01:31:56;101925.47;;;10.34;93.36
68871;BME280;55906;52.278;6.808;2024-02-21T01:37:46;101907.50;;;10.23;93.65
68871;BME280;55906;52.278;6.808;2024-02-21T01:40:14;101906.53;;;10.21;93.87
68871;BME280;55906;52.278;6.808;2024-02-21T01:42:41;101904.75;;;10.20;93.41
68871;BME280;55906;52.278;6.808;2024-02-21T01:45:08;101907.19;;;10.17;93.64
68871;BME280;55906;52.278;6.808;2024-02-21T01:47:36;101898.66;;;10.21;93.59
68871;BME280;55906;52.278;6.808;2024-02-21T01:50:03;101890.81;;;10.23;93.65
68871;BME280;55906;52.278;6.808;2024-02-21T01:52:31;101891.84;;;10.26;93.13
68871;BME280;55906;52.278;6.808;2024-02-21T01:55:01;101895.25;;;10.24;93.66
68871;BME280;55906;52.278;6.808;2024-02-21T01:57:28;101889.94;;;10.22;93.70
68871;BME280;55906;52.278;6.808;2024-02-21T01:59:55;101898.47;;;10.18;94.13
68871;BME280;55906;52.278;6.808;2024-02-21T02:02:22;101903.00;;;10.21;93.23
68871;BME280;55906;52.278;6.808;2024-02-21T02:04:49;101893.09;;;10.15;94.30
68871;BME280;55906;52.278;6.808;2024-02-21T02:07:15;101889.56;;;10.15;94.09
68871;BME280;55906;52.278;6.808;2024-02-21T02:09:42;101877.31;;;10.15;94.27
68871;BME280;55906;52.278;6.808;2024-02-21T02:12:10;101859.81;;;10.16;93.90
68871;BME280;55906;52.278;6.808;2024-02-21T02:14:37;101858.13;;;10.18;93.98
68871;BME280;55906;52.278;6.808;2024-02-21T02:17:04;101877.31;;;10.15;94.14
68871;BME280;55906;52.278;6.808;2024-02-21T02:19:31;101867.63;;;10.14;94.17
68871;BME280;55906;52.278;6.808;2024-02-21T02:22:05;101857.41;;;10.20;94.14
68871;BME280;55906;52.278;6.808;2024-02-21T02:24:36;101858.13;;;10.18;93.90
68871;BME280;55906;52.278;6.808;2024-02-21T02:27:03;101852.69;;;10.13;94.21
68871;BME280;55906;52.278;6.808;2024-02-21T02:29:28;101852.81;;;10.16;93.45
68871;BME280;55906;52.278;6.808;2024-02-21T02:31:55;101855.56;;;10.19;93.69
68871;BME280;55906;52.278;6.808;2024-02-21T02:34:21;101853.72;;;10.17;94.08
68871;BME280;55906;52.278;6.808;2024-02-21T02:36:48;101855.44;;;10.16;94.20
68871;BME280;55906;52.278;6.808;2024-02-21T02:39:15;101838.56;;;10.31;93.31
68871;BME280;55906;52.278;6.808;2024-02-21T02:41:43;101847.97;;;10.25;93.71
68871;BME280;55906;52.278;6.808;2024-02-21T02:44:10;101834.72;;;10.22;93.61
68871;BME280;55906;52.278;6.808;2024-02-21T02:46:36;101844.16;;;10.19;93.74
68871;BME280;55906;52.278;6.808;2024-02-21T02:49:03;101833.22;;;10.29;93.57
68871;BME280;55906;52.278;6.808;2024-02-21T02:51:29;101844.44;;;10.25;93.50
68871;BME280;55906;52.278;6.808;2024-02-21T02:53:56;101836.44;;;10.22;93.98
68871;BME280;55906;52.278;6.808;2024-02-21T02:56:23;101845.41;;;10.27;93.20
68871;BME280;55906;52.278;6.808;2024-02-21T02:58:51;101839.00;;;10.20;93.84
68871;BME280;55906;52.278;6.808;2024-02-21T03:01:17;101842.44;;;10.19;93.64
68871;BME280;55906;52.278;6.808;2024-02-21T03:03:44;101825.41;;;10.31;93.19
68871;BME280;55906;52.278;6.808;2024-02-21T03:06:12;101836.06;;;10.34;93.35
68871;BME280;55906;52.278;6.808;2024-02-21T03:08:39;101847.41;;;10.33;93.04
68871;BME280;55906;52.278;6.808;2024-02-21T03:11:06;101838.81;;;10.37;92.87
68871;BME280;55906;52.278;6.808;2024-02-21T03:13:33;101844.72;;;10.31;93.08
68871;BME280;55906;52.278;6.808;2024-02-21T03:16:01;101849.63;;;10.43;92.95
68871;BME280;55906;52.278;6.808;2024-02-21T03:18:28;101850.03;;;10.33;93.29
68871;BME280;55906;52.278;6.808;2024-02-21T03:20:55;101842.03;;;10.30;93.27
68871;BME280;55906;52.278;6.808;2024-02-21T03:23:21;101844.84;;;10.34;93.41
68871;BME280;55906;52.278;6.808;2024-02-21T03:25:48;101835.34;;;10.38;93.27
68871;BME280;55906;52.278;6.808;2024-02-21T03:28:16;101827.91;;;10.27;93.40
68871;BME280;55906;52.278;6.808;2024-02-21T03:30:42;101825.16;;;10.24;93.22
68871;BME280;55906;52.278;6.808;2024-02-21T03:33:10;101818.66;;;10.37;93.54
68871;BME280;55906;52.278;6.808;2024-02-21T03:35:37;101816.75;;;10.33;93.20
68871;BME280;55906;52.278;6.808;2024-02-21T03:38:04;101825.09;;;10.23;93.78
68871;BME280;55906;52.278;6.808;2024-02-21T03:40:30;101816.22;;;10.21;94.84
68871;BME280;55906;52.278;6.808;2024-02-21T03:42:57;101826.75;;;10.21;94.60
68871;BME280;55906;52.278;6.808;2024-02-21T03:45:23;101831.91;;;10.19;94.92
68871;BME280;55906;52.278;6.808;2024-02-21T03:47:50;101823.81;;;10.15;95.45
68871;BME280;55906;52.278;6.808;2024-02-21T03:50:18;101838.56;;;10.11;95.59
68871;BME280;55906;52.278;6.808;2024-02-21T03:52:44;101827.22;;;10.12;96.12
68871;BME280;55906;52.278;6.808;2024-02-21T03:55:11;101832.34;;;10.09;96.11
68871;BME280;55906;52.278;6.808;2024-02-21T03:57:38;101836.56;;;10.06;96.48
68871;BME280;55906;52.278;6.808;2024-02-21T04:00:05;101834.97;;;10.09;96.31
68871;BME280;55906;52.278;6.808;2024-02-21T04:02:36;101844.03;;;10.16;95.98
68871;BME280;55906;52.278;6.808;2024-02-21T04:05:03;101842.72;;;10.06;96.05
68871;BME280;55906;52.278;6.808;2024-02-21T04:07:31;101816.91;;;10.17;95.71
68871;BME280;55906;52.278;6.808;2024-02-21T04:09:58;101819.13;;;10.08;96.34
68871;BME280;55906;52.278;6.808;2024-02-21T04:12:24;101803.22;;;10.05;96.27
68871;BME280;55906;52.278;6.808;2024-02-21T04:14:51;101790.41;;;10.12;95.82
68871;BME280;55906;52.278;6.808;2024-02-21T04:17:17;101792.97;;;10.11;96.00
68871;BME280;55906;52.278;6.808;2024-02-21T04:19:44;101800.81;;;10.09;95.84
68871;BME280;55906;52.278;6.808;2024-02-21T04:22:11;101795.81;;;10.15;95.70
68871;BME280;55906;52.278;6.808;2024-02-21T04:24:39;101798.56;;;10.18;95.21
68871;BME280;55906;52.278;6.808;2024-02-21T04:27:05;101789.59;;;10.13;95.49
68871;BME280;55906;52.278;6.808;2024-02-21T04:29:32;101785.03;;;10.09;95.60
68871;BME280;55906;52.278;6.808;2024-02-21T04:31:59;101791.66;;;10.20;95.08
68871;BME280;55906;52.278;6.808;2024-02-21T04:34:27;101792.09;;;10.10;95.54
68871;BME280;55906;52.278;6.808;2024-02-21T04:36:54;101789.38;;;10.09;95.72
68871;BME280;55906;52.278;6.808;2024-02-21T04:39:21;101778.16;;;10.13;95.00
68871;BME280;55906;52.278;6.808;2024-02-21T04:41:49;101775.41;;;10.10;95.61
68871;BME280;55906;52.278;6.808;2024-02-21T04:44:15;101778.22;;;10.14;95.07
68871;BME280;55906;52.278;6.808;2024-02-21T04:46:42;101773.09;;;10.17;94.61
68871;BME280;55906;52.278;6.808;2024-02-21T04:49:09;101778.09;;;10.11;94.69
68871;BME280;55906;52.278;6.808;2024-02-21T04:51:36;101779.19;;;10.16;94.16
68871;BME280;55906;52.278;6.808;2024-02-21T04:54:02;101772.38;;;10.20;94.22
68871;BME280;55906;52.278;6.808;2024-02-21T04:56:29;101773.25;;;10.20;94.19
68871;BME280;55906;52.278;6.808;2024-02-21T04:58:57;101760.91;;;10.19;94.20
68871;BME280;55906;52.278;6.808;2024-02-21T05:01:23;101764.00;;;10.09;94.17
68871;BME280;55906;52.278;6.808;2024-02-21T05:03:50;101760.78;;;10.16;94.46
68871;BME280;55906;52.278;6.808;2024-02-21T05:06:17;101753.13;;;10.21;93.66
68871;BME280;55906;52.278;6.808;2024-02-21T05:08:44;101754.63;;;10.16;94.07
68871;BME280;55906;52.278;6.808;2024-02-21T05:11:10;101751.22;;;10.18;93.32
68871;BME280;55906;52.278;6.808;2024-02-21T05:13:37;101734.50;;;10.16;93.28
68871;BME280;55906;52.278;6.808;2024-02-21T05:16:06;101731.44;;;10.26;93.47
68871;BME280;55906;52.278;6.808;2024-02-21T05:18:32;101726.06;;;10.23;93.52
68871;BME280;55906;52.278;6.808;2024-02-21T05:20:59;101728.56;;;10.20;92.74
68871;BME280;55906;52.278;6.808;2024-02-21T05:23:26;101730.13;;;10.17;92.98
68871;BME280;55906;52.278;6.808;2024-02-21T05:25:52;101736.81;;;10.09;93.52
68871;BME280;55906;52.278;6.808;2024-02-21T05:28:19;101751.94;;;10.14;93.37
68871;BME280;55906;52.278;6.808;2024-02-21T05:30:45;101740.66;;;10.17;92.78
68871;BME280;55906;52.278;6.808;2024-02-21T05:33:13;101741.59;;;10.19;92.93
68871;BME280;55906;52.278;6.808;2024-02-21T05:35:46;101741.97;;;10.26;92.12
68871;BME280;55906;52.278;6.808;2024-02-21T05:38:13;101733.22;;;10.27;92.83
68871;BME280;55906;52.278;6.808;2024-02-21T05:40:40;101736.28;;;10.17;92.95
68871;BME280;55906;52.278;6.808;2024-02-21T05:43:07;101723.31;;;10.20;92.54
68871;BME280;55906;52.278;6.808;2024-02-21T05:45:34;101717.47;;;10.27;92.57
68871;BME280;55906;52.278;6.808;2024-02-21T05:48:01;101712.91;;;10.23;92.29
68871;BME280;55906;52.278;6.808;2024-02-21T05:50:29;101709.31;;;10.21;92.46
68871;BME280;55906;52.278;6.808;2024-02-21T05:52:56;101699.34;;;10.14;92.92
68871;BME280;55906;52.278;6.808;2024-02-21T05:55:23;101710.88;;;10.18;92.71
68871;BME280;55906;52.278;6.808;2024-02-21T05:57:49;101702.25;;;10.20;92.52
68871;BME280;55906;52.278;6.808;2024-02-21T06:00:19;101705.78;;;10.21;92.75
68871;BME280;55906;52.278;6.808;2024-02-21T06:02:46;101705.56;;;10.16;92.17
68871;BME280;55906;52.278;6.808;2024-02-21T06:05:13;101698.66;;;10.18;92.29
68871;BME280;55906;52.278;6.808;2024-02-21T06:07:41;101687.81;;;10.11;92.22
68871;BME280;55906;52.278;6.808;2024-02-21T06:10:08;101690.56;;;10.14;92.51
68871;BME280;55906;52.278;6.808;2024-02-21T06:12:35;101687.28;;;10.19;92.26
68871;BME280;55906;52.278;6.808;2024-02-21T06:15:02;101689.59;;;10.12;92.78
68871;BME280;55906;52.278;6.808;2024-02-21T06:17:29;101679.88;;;10.09;92.46
68871;BME280;55906;52.278;6.808;2024-02-21T06:19:55;101672.34;;;10.18;92.07
68871;BME280;55906;52.278;6.808;2024-02-21T06:22:22;101668.31;;;10.06;92.48
68871;BME280;55906;52.278;6.808;2024-02-21T06:24:50;101670.63;;;10.19;92.22
68871;BME280;55906;52.278;6.808;2024-02-21T06:27:18;101666.00;;;10.13;92.58
68871;BME280;55906;52.278;6.808;2024-02-21T06:29:45;101664.09;;;10.09;92.87
68871;BME280;55906;52.278;6.808;2024-02-21T06:32:12;101663.38;;;10.13;92.53
68871;BME280;55906;52.278;6.808;2024-02-21T06:34:38;101669.47;;;10.12;92.05
68871;BME280;55906;52.278;6.808;2024-02-21T06:37:05;101668.38;;;10.07;92.29
68871;BME280;55906;52.278;6.808;2024-02-21T06:39:32;101671.09;;;10.09;92.10
68871;BME280;55906;52.278;6.808;2024-02-21T06:42:01;101659.41;;;10.02;92.20
68871;BME280;55906;52.278;6.808;2024-02-21T06:44:27;101657.69;;;10.03;92.09
68871;BME280;55906;52.278;6.808;2024-02-21T06:46:54;101664.75;;;10.04;92.24
68871;BME280;55906;52.278;6.808;2024-02-21T06:49:21;101668.13;;;10.01;91.79
68871;BME280;55906;52.278;6.808;2024-02-21T06:51:48;101671.91;;;10.08;91.89
68871;BME280;55906;52.278;6.808;2024-02-21T06:54:14;101668.84;;;9.97;92.38
68871;BME280;55906;52.278;6.808;2024-02-21T06:56:41;101674.47;;;10.06;91.78
68871;BME280;55906;52.278;6.808;2024-02-21T06:59:09;101678.00;;;10.07;92.03
68871;BME280;55906;52.278;6.808;2024-02-21T07:01:36;101677.81;;;10.02;92.15
68871;BME280;55906;52.278;6.808;2024-02-21T07:04:03;101677.81;;;10.02;91.67
68871;BME280;55906;52.278;6.808;2024-02-21T07:06:29;101675.97;;;10.00;91.99
68871;BME280;55906;52.278;6.808;2024-02-21T07:08:56;101674.66;;;10.11;90.69
68871;BME280;55906;52.278;6.808;2024-02-21T07:11:23;101672.81;;;10.08;90.90
68871;BME280;55906;52.278;6.808;2024-02-21T07:13:50;101673.13;;;10.16;91.13
68871;BME280;55906;52.278;6.808;2024-02-21T07:16:18;101680.88;;;10.13;90.91
68871;BME280;55906;52.278;6.808;2024-02-21T07:18:44;101674.59;;;10.09;90.77
68871;BME280;55906;52.278;6.808;2024-02-21T07:21:11;101671.09;;;10.09;90.80
68871;BME280;55906;52.278;6.808;2024-02-21T07:23:40;101682.44;;;10.08;90.71
68871;BME280;55906;52.278;6.808;2024-02-21T07:26:07;101671.03;;;10.07;91.08
68871;BME280;55906;52.278;6.808;2024-02-21T07:28:33;101663.97;;;10.06;91.31
68871;BME280;55906;52.278;6.808;2024-02-21T07:31:00;101655.38;;;10.10;90.84
68871;BME280;55906;52.278;6.808;2024-02-21T07:33:28;101665.28;;;10.17;90.98
68871;BME280;55906;52.278;6.808;2024-02-21T07:35:56;101654.94;;;10.20;90.97
68871;BME280;55906;52.278;6.808;2024-02-21T07:38:22;101655.06;;;10.23;90.61
68871;BME280;55906;52.278;6.808;2024-02-21T07:40:49;101650.63;;;10.22;90.72
68871;BME280;55906;52.278;6.808;2024-02-21T07:43:16;101644.72;;;10.28;90.49
68871;BME280;55906;52.278;6.808;2024-02-21T07:45:42;101638.50;;;10.26;90.57
68871;BME280;55906;52.278;6.808;2024-02-21T07:48:09;101643.94;;;10.31;90.46
68871;BME280;55906;52.278;6.808;2024-02-21T07:50:37;101638.63;;;10.29;90.52
68871;BME280;55906;52.278;6.808;2024-02-21T07:53:04;101639.34;;;10.25;90.68
68871;BME280;55906;52.278;6.808;2024-02-21T07:55:31;101629.19;;;10.34;89.71
68871;BME280;55906;52.278;6.808;2024-02-21T07:57:57;101634.25;;;10.30;90.13
68871;BME280;55906;52.278;6.808;2024-02-21T08:00:24;101626.59;;;10.36;89.66
68871;BME280;55906;52.278;6.808;2024-02-21T08:02:51;101623.03;;;10.34;89.63
68871;BME280;55906;52.278;6.808;2024-02-21T08:05:17;101615.31;;;10.38;89.95
68871;BME280;55906;52.278;6.808;2024-02-21T08:07:45;101613.91;;;10.46;89.08
68871;BME280;55906;52.278;6.808;2024-02-21T08:10:12;101612.28;;;10.50;88.89
68871;BME280;55906;52.278;6.808;2024-02-21T08:12:39;101608.41;;;10.40;89.07
68871;BME280;55906;52.278;6.808;2024-02-21T08:15:06;101604.50;;;10.53;88.79
68871;BME280;55906;52.278;6.808;2024-02-21T08:17:33;101603.66;;;10.54;87.93
68871;BME280;55906;52.278;6.808;2024-02-21T08:20:00;101603.84;;;10.58;88.01
68871;BME280;55906;52.278;6.808;2024-02-21T08:22:28;101593.81;;;10.48;87.68
68871;BME280;55906;52.278;6.808;2024-02-21T08:24:56;101590.41;;;10.51;88.26
68871;BME280;55906;52.278;6.808;2024-02-21T08:27:23;101592.06;;;10.49;87.69
68871;BME280;55906;52.278;6.808;2024-02-21T08:29:49;101586.22;;;10.56;87.77
68871;BME280;55906;52.278;6.808;2024-02-21T08:32:16;101593.22;;;10.55;87.55
68871;BME280;55906;52.278;6.808;2024-02-21T08:34:43;101580.06;;;10.55;87.14
68871;BME280;55906;52.278;6.808;2024-02-21T08:37:09;101582.00;;;10.61;86.64
68871;BME280;55906;52.278;6.808;2024-02-21T08:39:37;101582.13;;;10.64;86.49
68871;BME280;55906;52.278;6.808;2024-02-21T08:42:05;101578.78;;;10.68;86.37
68871;BME280;55906;52.278;6.808;2024-02-21T08:44:32;101582.56;;;10.76;86.51
68871;BME280;55906;52.278;6.808;2024-02-21T08:46:59;101571.78;;;10.69;85.50
68871;BME280;55906;52.278;6.808;2024-02-21T08:49:29;101579.94;;;10.76;85.71
68871;BME280;55906;52.278;6.808;2024-02-21T08:51:56;101573.16;;;10.83;85.60
68871;BME280;55906;52.278;6.808;2024-02-21T08:54:23;101563.59;;;10.85;85.67
68871;BME280;55906;52.278;6.808;2024-02-21T08:56:49;101564.22;;;10.78;85.38
68871;BME280;55906;52.278;6.808;2024-02-21T08:59:17;101554.97;;;10.89;85.49
68871;BME280;55906;52.278;6.808;2024-02-21T09:01:44;101534.97;;;10.94;84.95
68871;BME280;55906;52.278;6.808;2024-02-21T09:04:11;101537.22;;;11.09;84.73
68871;BME280;55906;52.278;6.808;2024-02-21T09:06:37;101535.22;;;11.02;84.57
68871;BME280;55906;52.278;6.808;2024-02-21T09:09:07;101545.22;;;11.12;83.88
68871;BME280;55906;52.278;6.808;2024-02-21T09:11:33;101540.47;;;11.27;84.36
68871;BME280;55906;52.278;6.808;2024-02-21T09:14:00;101543.00;;;11.24;83.30
68871;BME280;55906;52.278;6.808;2024-02-21T09:16:30;101534.91;;;11.18;83.05
68871;BME280;55906;52.278;6.808;2024-02-21T09:18:57;101535.44;;;11.08;83.85
68871;BME280;55906;52.278;6.808;2024-02-21T09:21:23;101527.22;;;11.24;83.61
68871;BME280;55906;52.278;6.808;2024-02-21T09:23:50;101537.06;;;11.30;83.51
68871;BME280;55906;52.278;6.808;2024-02-21T09:26:17;101531.72;;;11.28;83.84
68871;BME280;55906;52.278;6.808;2024-02-21T09:28:44;101537.75;;;11.24;83.51
68871;BME280;55906;52.278;6.808;2024-02-21T09:31:10;101532.88;;;11.36;83.25
68871;BME280;55906;52.278;6.808;2024-02-21T09:33:39;101532.72;;;11.32;82.75
68871;BME280;55906;52.278;6.808;2024-02-21T09:36:06;101532.03;;;11.37;82.53
68871;BME280;55906;52.278;6.808;2024-02-21T09:38:32;101531.03;;;11.34;83.27
68871;BME280;55906;52.278;6.808;2024-02-21T09:41:00;101522.78;;;11.23;83.70
68871;BME280;55906;52.278;6.808;2024-02-21T09:43:31;101529.75;;;11.21;83.47
68871;BME280;55906;52.278;6.808;2024-02-21T09:46:00;101521.19;;;11.28;83.30
68871;BME280;55906;52.278;6.808;2024-02-21T09:48:39;101517.72;;;11.29;82.88
68871;BME280;55906;52.278;6.808;2024-02-21T09:51:10;101516.03;;;11.31;83.01
68871;BME280;55906;52.278;6.808;2024-02-21T09:53:37;101510.34;;;11.19;82.88
68871;BME280;55906;52.278;6.808;2024-02-21T09:56:05;101514.78;;;11.20;82.65
68871;BME280;55906;52.278;6.808;2024-02-21T09:58:34;101499.66;;;11.14;82.42
68871;BME280;55906;52.278;6.808;2024-02-21T10:01:00;101510.19;;;11.14;82.30
68871;BME280;55906;52.278;6.808;2024-02-21T10:03:29;101503.31;;;11.18;81.95
68871;BME280;55906;52.278;6.808;2024-02-21T10:05:57;101508.50;;;11.16;82.10
68871;BME280;55906;52.278;6.808;2024-02-21T10:08:26;101505.50;;;11.31;81.73
68871;BME280;55906;52.278;6.808;2024-02-21T10:10:53;101501.03;;;11.29;82.20
68871;BME280;55906;52.278;6.808;2024-02-21T10:13:25;101487.91;;;11.30;81.82
68871;BME280;55906;52.278;6.808;2024-02-21T10:16:03;101484.72;;;11.40;81.40
68871;BME280;55906;52.278;6.808;2024-02-21T10:18:30;101483.69;;;11.35;81.00
68871;BME280;55906;52.278;6.808;2024-02-21T10:21:02;101468.91;;;11.40;81.49
68871;BME280;55906;52.278;6.808;2024-02-21T10:23:40;101455.09;;;11.47;81.21
68871;BME280;55906;52.278;6.808;2024-02-21T10:26:07;101460.50;;;11.52;80.63
68871;BME280;55906;52.278;6.808;2024-02-21T10:28:34;101443.09;;;11.57;79.92
68871;BME280;55906;52.278;6.808;2024-02-21T10:31:00;101446.38;;;11.50;80.61
68871;BME280;55906;52.278;6.808;2024-02-21T10:33:27;101433.19;;;11.77;79.33
68871;BME280;55906;52.278;6.808;2024-02-21T10:36:07;101423.63;;;11.79;79.59
68871;BME280;55906;52.278;6.808;2024-02-21T10:38:36;101430.56;;;11.77;79.24
68871;BME280;55906;52.278;6.808;2024-02-21T10:41:04;101421.00;;;11.79;79.17
68871;BME280;55906;52.278;6.808;2024-02-21T10:43:37;101427.09;;;11.78;78.69
68871;BME280;55906;52.278;6.808;2024-02-21T10:46:05;101420.28;;;11.84;78.51
68871;BME280;55906;52.278;6.808;2024-02-21T10:48:38;101416.78;;;11.85;78.34
68871;BME280;55906;52.278;6.808;2024-02-21T10:51:14;101403.66;;;11.87;77.59
68871;BME280;55906;52.278;6.808;2024-02-21T10:53:44;101395.88;;;11.92;77.82
68871;BME280;55906;52.278;6.808;2024-02-21T10:56:26;101387.25;;;11.97;77.23
68871;BME280;55906;52.278;6.808;2024-02-21T10:58:55;101387.63;;;11.79;77.60
68871;BME280;55906;52.278;6.808;2024-02-21T11:01:24;101380.06;;;11.92;77.14
68871;BME280;55906;52.278;6.808;2024-02-21T11:03:53;101374.16;;;12.00;77.34
68871;BME280;55906;52.278;6.808;2024-02-21T11:06:22;101371.72;;;12.08;77.79
68871;BME280;55906;52.278;6.808;2024-02-21T11:09:02;101368.53;;;12.20;77.36
68871;BME280;55906;52.278;6.808;2024-02-21T11:11:29;101366.66;;;12.15;78.02
68871;BME280;55906;52.278;6.808;2024-02-21T11:14:04;101363.09;;;12.13;77.42
68871;BME280;55906;52.278;6.808;2024-02-21T11:16:35;101371.81;;;12.11;78.13
68871;BME280;55906;52.278;6.808;2024-02-21T11:19:10;101357.50;;;12.03;78.23
68871;BME280;55906;52.278;6.808;2024-02-21T11:21:46;101354.59;;;11.92;77.86
68871;BME280;55906;52.278;6.808;2024-02-21T11:24:14;101348.75;;;11.74;78.70
68871;BME280;55906;52.278;6.808;2024-02-21T11:26:41;101358.31;;;11.70;79.19
68871;BME280;55906;52.278;6.808;2024-02-21T11:29:07;101327.66;;;11.74;79.38
68871;BME280;55906;52.278;6.808;2024-02-21T11:31:39;101328.28;;;11.65;79.36
68871;BME280;55906;52.278;6.808;2024-02-21T11:34:09;101323.94;;;11.67;79.54
68871;BME280;55906;52.278;6.808;2024-02-21T11:36:47;101323.63;;;11.57;80.16
68871;BME280;55906;52.278;6.808;2024-02-21T11:39:22;101317.81;;;11.38;81.24
68871;BME280;55906;52.278;6.808;2024-02-21T11:42:01;101304.03;;;11.47;81.77
68871;BME280;55906;52.278;6.808;2024-02-21T11:44:29;101295.66;;;11.62;81.18
68871;BME280;55906;52.278;6.808;2024-02-21T11:46:55;101289.41;;;11.58;82.17
68871;BME280;55906;52.278;6.808;2024-02-21T11:49:24;101291.06;;;11.54;82.01
68871;BME280;55906;52.278;6.808;2024-02-21T11:51:59;101280.13;;;11.41;82.62
68871;BME280;55906;52.278;6.808;2024-02-21T11:54:26;101270.41;;;11.38;83.31
68871;BME280;55906;52.278;6.808;2024-02-21T11:56:53;101267.72;;;11.37;83.71
68871;BME280;55906;52.278;6.808;2024-02-21T11:59:19;101248.44;;;11.38;83.75
68871;BME280;55906;52.278;6.808;2024-02-21T12:01:46;101237.78;;;11.33;83.88
68871;BME280;55906;52.278;6.808;2024-02-21T12:04:13;101221.78;;;11.27;84.79
68871;BME280;55906;52.278;6.808;2024-02-21T12:06:40;101204.50;;;11.37;85.41
68871;BME280;55906;52.278;6.808;2024-02-21T12:09:08;101200.00;;;11.33;84.50
68871;BME280;55906;52.278;6.808;2024-02-21T12:11:35;101192.72;;;11.24;84.10
68871;BME280;55906;52.278;6.808;2024-02-21T12:14:03;101214.59;;;11.21;84.20
68871;BME280;55906;52.278;6.808;2024-02-21T12:16:30;101208.53;;;11.24;83.99
68871;BME280;55906;52.278;6.808;2024-02-21T12:18:57;101199.09;;;11.32;83.61
68871;BME280;55906;52.278;6.808;2024-02-21T12:21:24;101214.16;;;11.36;83.12
68871;BME280;55906;52.278;6.808;2024-02-21T12:23:53;101209.34;;;11.21;83.24
68871;BME280;55906;52.278;6.808;2024-02-21T12:26:21;101179.66;;;11.27;82.62
68871;BME280;55906;52.278;6.808;2024-02-21T12:28:48;101164.06;;;11.35;82.49
68871;BME280;55906;52.278;6.808;2024-02-21T12:31:15;101143.16;;;11.41;82.16
68871;BME280;55906;52.278;6.808;2024-02-21T12:33:43;101149.16;;;11.35;82.08
68871;BME280;55906;52.278;6.808;2024-02-21T12:36:09;101176.50;;;11.40;81.50
68871;BME280;55906;52.278;6.808;2024-02-21T12:38:36;101182.59;;;11.38;81.16
68871;BME280;55906;52.278;6.808;2024-02-21T12:41:03;101180.66;;;11.32;80.93
68871;BME280;55906;52.278;6.808;2024-02-21T12:43:31;101176.25;;;11.31;80.40
68871;BME280;55906;52.278;6.808;2024-02-21T12:45:58;101182.19;;;11.24;80.64
68871;BME280;55906;52.278;6.808;2024-02-21T12:48:25;101165.41;;;11.20;80.04
68871;BME280;55906;52.278;6.808;2024-02-21T12:50:51;101172.25;;;11.14;79.64
68871;BME280;55906;52.278;6.808;2024-02-21T12:53:25;101161.91;;;11.20;80.14
68871;BME280;55906;52.278;6.808;2024-02-21T12:55:52;101150.44;;;11.18;80.02